createdAt,value
2022-11-16T00:02:19.349Z,17.52
2022-11-16T00:04:47.182Z,17.10
2022-11-16T00:07:15.236Z,17.80
2022-11-16T00:09:42.998Z,17.60
2022-11-16T00:12:12.952Z,17.45
2022-11-16T00:14:40.716Z,16.17
2022-11-16T00:17:08.704Z,17.02
2022-11-16T00:19:36.441Z,16.98
2022-11-16T00:22:04.638Z,16.45
2022-11-16T00:24:32.384Z,17.38
2022-11-16T00:27:00.343Z,17.50
2022-11-16T00:29:28.412Z,16.17
2022-11-16T00:31:56.724Z,16.67
2022-11-16T00:34:24.768Z,16.73
2022-11-16T00:36:52.904Z,16.13
2022-11-16T00:39:21.098Z,16.23
2022-11-16T00:41:49.560Z,16.15
2022-11-16T00:44:18.932Z,15.82
2022-11-16T00:46:47.031Z,17.27
2022-11-16T00:49:14.796Z,16.88
2022-11-16T00:51:42.841Z,14.85
2022-11-16T00:54:11.144Z,16.65
2022-11-16T00:56:39.862Z,16.90
2022-11-16T00:59:08.209Z,16.30
2022-11-16T01:01:36.350Z,15.85
2022-11-16T01:04:04.317Z,16.83
2022-11-16T01:06:32.371Z,16.08
2022-11-16T01:09:01.784Z,16.10
2022-11-16T01:11:48.497Z,15.38
2022-11-16T01:14:16.686Z,15.93
2022-11-16T01:16:44.931Z,15.25
2022-11-16T01:19:12.638Z,15.50
2022-11-16T01:21:40.777Z,15.05
2022-11-16T01:24:08.607Z,14.98
2022-11-16T01:26:36.647Z,15.30
2022-11-16T01:29:04.784Z,15.68
2022-11-16T01:31:36.917Z,15.43
2022-11-16T01:34:05.869Z,15.77
2022-11-16T01:36:36.701Z,15.15
2022-11-16T01:39:05.959Z,15.02
2022-11-16T01:41:45.645Z,15.75
2022-11-16T01:44:32.573Z,14.95
2022-11-16T01:47:12.384Z,15.50
2022-11-16T01:49:58.249Z,15.40
2022-11-16T01:52:33.864Z,14.30
2022-11-16T01:55:04.071Z,15.13
2022-11-16T01:57:46.240Z,14.68
2022-11-16T02:00:15.192Z,14.57
2022-11-16T02:02:51.056Z,14.73
2022-11-16T02:05:50.916Z,14.50
2022-11-16T02:09:05.321Z,15.65
2022-11-16T02:11:42.246Z,15.00
2022-11-16T02:14:42.070Z,14.40
2022-11-16T02:17:42.447Z,14.50
2022-11-16T02:20:30.338Z,15.48
2022-11-16T02:23:38.284Z,14.57
2022-11-16T02:26:55.469Z,13.88
2022-11-16T02:29:31.482Z,15.85
2022-11-16T02:32:07.537Z,14.57
2022-11-16T02:34:48.858Z,15.15
2022-11-16T02:37:20.322Z,14.45
2022-11-16T02:39:52.064Z,15.32
2022-11-16T02:42:30.414Z,14.85
2022-11-16T02:44:59.742Z,15.73
2022-11-16T02:47:33.289Z,14.73
2022-11-16T02:50:11.292Z,14.50
2022-11-16T02:52:39.658Z,14.10
2022-11-16T02:55:10.468Z,14.63
2022-11-16T02:58:11.207Z,14.70
2022-11-16T03:00:48.237Z,14.52
2022-11-16T03:03:42.076Z,14.93
2022-11-16T03:06:31.926Z,14.40
2022-11-16T03:09:08.615Z,16.00
2022-11-16T03:12:03.107Z,14.02
2022-11-16T03:14:43.827Z,15.02
2022-11-16T03:17:50.872Z,14.85
2022-11-16T03:25:31.755Z,13.52
2022-11-16T03:28:36.695Z,15.52
2022-11-16T03:34:00.997Z,15.20
2022-11-16T03:36:38.719Z,16.33
2022-11-16T03:39:15.707Z,15.93
2022-11-16T03:41:48.437Z,16.15
2022-11-16T03:44:19.220Z,15.32
2022-11-16T03:46:48.178Z,16.02
2022-11-16T03:49:20.274Z,15.88
2022-11-16T03:51:49.420Z,16.00
2022-11-16T03:54:17.507Z,16.88
2022-11-16T03:56:45.698Z,16.48
2022-11-16T03:59:13.559Z,15.65
2022-11-16T04:01:44.773Z,16.77
2022-11-16T04:04:34.352Z,16.65
2022-11-16T04:07:21.168Z,16.63
2022-11-16T04:10:07.724Z,17.20
2022-11-16T04:12:54.150Z,16.88
2022-11-16T04:15:40.093Z,17.42
2022-11-16T04:18:28.948Z,17.23
2022-11-16T04:21:15.721Z,17.70
2022-11-16T04:24:20.414Z,17.23
2022-11-16T04:27:11.569Z,18.73
2022-11-16T04:29:41.180Z,21.25
2022-11-16T04:32:28.697Z,18.23
2022-11-16T04:35:15.464Z,18.13
2022-11-16T04:37:50.034Z,18.80
2022-11-16T04:40:25.766Z,17.63
2022-11-16T04:42:59.048Z,19.02
2022-11-16T04:45:48.649Z,18.23
2022-11-16T04:48:20.331Z,19.13
2022-11-16T04:50:51.709Z,18.00
2022-11-16T04:53:22.572Z,18.33
2022-11-16T04:56:00.749Z,18.08
2022-11-16T04:58:29.782Z,22.77
2022-11-16T05:00:59.718Z,28.70
2022-11-16T05:03:27.842Z,24.08
2022-11-16T05:05:56.842Z,18.73
2022-11-16T05:08:25.491Z,18.27
2022-11-16T05:10:54.856Z,18.85
2022-11-16T05:13:22.722Z,22.42
2022-11-16T05:15:52.093Z,19.38
2022-11-16T05:18:19.710Z,19.77
2022-11-16T05:21:00.447Z,20.88
2022-11-16T05:23:48.717Z,18.88
2022-11-16T05:26:20.125Z,18.63
2022-11-16T05:28:47.963Z,19.70
2022-11-16T05:31:15.848Z,18.27
2022-11-16T05:33:44.128Z,18.75
2022-11-16T05:36:13.837Z,18.17
2022-11-16T05:38:41.508Z,20.10
2022-11-16T05:41:09.372Z,19.17
2022-11-16T05:43:37.260Z,17.50
2022-11-16T05:46:14.553Z,17.73
2022-11-16T05:48:42.295Z,19.05
2022-11-16T05:51:10.154Z,18.40
2022-11-16T05:53:37.726Z,19.52
2022-11-16T05:56:07.343Z,17.67
2022-11-16T05:58:38.490Z,21.65
2022-11-16T06:01:07.053Z,23.13
2022-11-16T06:03:36.352Z,21.45
2022-11-16T06:06:05.716Z,18.73
2022-11-16T06:08:33.813Z,18.20
2022-11-16T06:11:07.938Z,17.55
2022-11-16T06:13:37.578Z,18.45
2022-11-16T06:16:07.149Z,18.40
2022-11-16T06:18:44.855Z,18.10
2022-11-16T06:21:16.669Z,17.65
2022-11-16T06:23:45.374Z,18.05
2022-11-16T06:26:13.641Z,17.73
2022-11-16T06:28:41.449Z,17.30
2022-11-16T06:31:09.930Z,18.30
2022-11-16T06:33:41.699Z,18.35
2022-11-16T06:36:16.651Z,17.95
2022-11-16T06:38:44.474Z,17.58
2022-11-16T06:41:13.673Z,20.35
2022-11-16T06:43:45.972Z,18.98
2022-11-16T06:46:15.910Z,20.15
2022-11-16T06:48:43.587Z,17.58
2022-11-16T06:51:14.404Z,17.80
2022-11-16T06:53:42.191Z,18.25
2022-11-16T06:56:15.076Z,17.95
2022-11-16T06:58:53.489Z,16.10
2022-11-16T07:01:22.815Z,17.38
2022-11-16T07:03:53.124Z,19.10
2022-11-16T07:06:21.084Z,17.70
2022-11-16T07:08:48.862Z,16.67
2022-11-16T07:11:20.571Z,18.42
2022-11-16T07:13:49.286Z,23.02
2022-11-16T07:16:17.651Z,27.80
2022-11-16T07:18:52.788Z,53.85
2022-11-16T07:21:20.858Z,36.40
2022-11-16T07:23:48.897Z,28.55
2022-11-16T07:26:20.776Z,24.98
2022-11-16T07:28:53.954Z,22.55
2022-11-16T07:31:23.999Z,22.83
2022-11-16T07:34:11.756Z,21.63
2022-11-16T07:36:48.526Z,24.08
2022-11-16T07:39:18.139Z,20.90
2022-11-16T07:41:47.098Z,19.75
2022-11-16T07:44:28.581Z,20.95
2022-11-16T07:47:07.172Z,20.30
2022-11-16T07:49:36.679Z,20.65
2022-11-16T07:52:10.732Z,22.70
2022-11-16T07:54:52.333Z,22.90
2022-11-16T07:57:22.940Z,22.75
2022-11-16T07:59:52.133Z,19.95
2022-11-16T08:02:20.102Z,20.08
2022-11-16T08:04:50.475Z,18.27
2022-11-16T08:07:21.318Z,19.92
2022-11-16T08:09:53.999Z,27.52
2022-11-16T08:12:23.117Z,24.20
2022-11-16T08:14:50.753Z,23.95
2022-11-16T08:17:18.831Z,25.13
2022-11-16T08:19:46.496Z,23.75
2022-11-16T08:22:16.750Z,26.13
2022-11-16T08:24:45.962Z,29.25
2022-11-16T08:27:17.027Z,21.08
2022-11-16T08:29:47.382Z,22.47
2022-11-16T08:32:15.622Z,18.25
2022-11-16T08:34:44.379Z,17.42
2022-11-16T08:37:12.299Z,16.67
2022-11-16T08:39:43.906Z,16.83
2022-11-16T08:42:11.966Z,15.77
2022-11-16T08:44:40.831Z,16.20
2022-11-16T08:47:14.016Z,19.98
2022-11-16T08:49:49.687Z,17.60
2022-11-16T08:52:18.975Z,21.70
2022-11-16T08:54:47.347Z,17.73
2022-11-16T08:57:16.764Z,15.07
2022-11-16T08:59:46.544Z,16.90
2022-11-16T09:02:15.224Z,15.63
2022-11-16T09:04:43.864Z,13.55
2022-11-16T09:07:11.774Z,12.00
2022-11-16T09:09:39.445Z,12.60
2022-11-16T09:12:07.402Z,11.68
2022-11-16T09:14:34.995Z,12.45
2022-11-16T09:17:03.526Z,13.05
2022-11-16T09:19:31.100Z,10.93
2022-11-16T09:21:58.898Z,10.98
2022-11-16T09:24:26.554Z,10.70
2022-11-16T09:26:56.784Z,12.65
2022-11-16T09:29:24.464Z,12.80
2022-11-16T09:31:52.389Z,11.90
2022-11-16T09:34:20.060Z,11.20
2022-11-16T09:36:47.974Z,12.30
2022-11-16T09:39:32.032Z,10.68
2022-11-16T09:42:29.213Z,12.10
2022-11-16T09:45:42.941Z,9.80
2022-11-16T09:48:13.939Z,9.75
2022-11-16T09:50:48.679Z,9.20
2022-11-16T09:53:53.189Z,9.70
2022-11-16T09:56:22.789Z,8.80
2022-11-16T09:59:00.283Z,10.40
2022-11-16T10:01:46.185Z,9.63
2022-11-16T10:04:51.416Z,9.13
2022-11-16T10:07:27.658Z,8.55
2022-11-16T10:09:56.520Z,9.18
2022-11-16T10:12:43.691Z,9.23
2022-11-16T10:15:30.177Z,9.40
2022-11-16T10:18:18.993Z,10.50
2022-11-16T10:21:14.399Z,10.07
2022-11-16T10:24:35.748Z,9.13
2022-11-16T10:27:22.046Z,12.27
2022-11-16T10:30:18.895Z,9.98
2022-11-16T10:33:09.680Z,23.20
2022-11-16T10:35:46.915Z,11.38
2022-11-16T10:38:17.526Z,9.68
2022-11-16T10:40:52.046Z,10.70
2022-11-16T10:43:28.875Z,9.15
2022-11-16T10:46:05.483Z,9.57
2022-11-16T10:48:45.137Z,10.85
2022-11-16T10:51:12.704Z,9.32
2022-11-16T10:53:43.903Z,8.30
2022-11-16T10:56:21.871Z,7.95
2022-11-16T10:58:58.687Z,8.25
2022-11-16T11:01:57.810Z,8.65
2022-11-16T11:04:29.084Z,8.55
2022-11-16T11:06:59.281Z,7.45
2022-11-16T11:09:30.589Z,10.25
2022-11-16T11:12:40.192Z,7.80
2022-11-16T11:15:27.149Z,8.07
2022-11-16T11:18:19.424Z,9.57
2022-11-16T11:21:07.914Z,8.77
2022-11-16T11:23:51.332Z,7.13
2022-11-16T11:26:36.252Z,8.55
2022-11-16T11:29:22.532Z,9.35
2022-11-16T11:31:59.366Z,5.88
2022-11-16T11:34:30.657Z,6.57
2022-11-16T11:37:05.106Z,6.15
2022-11-16T11:39:37.235Z,6.68
2022-11-16T11:42:14.425Z,6.70
2022-11-16T11:44:54.559Z,5.93
2022-11-16T11:47:56.805Z,5.82
2022-11-16T11:50:53.179Z,8.32
2022-11-16T11:53:47.479Z,10.38
2022-11-16T11:56:15.673Z,7.75
2022-11-16T11:58:44.643Z,6.50
2022-11-16T12:01:39.926Z,6.68
2022-11-16T12:04:28.829Z,6.30
2022-11-16T12:07:21.530Z,5.80
2022-11-16T12:10:07.609Z,5.57
2022-11-16T12:12:56.683Z,6.53
2022-11-16T12:16:09.237Z,5.93
2022-11-16T12:18:39.372Z,5.30
2022-11-16T12:21:27.796Z,4.90
2022-11-16T12:23:55.313Z,4.75
2022-11-16T12:26:29.121Z,4.80
2022-11-16T12:29:20.707Z,5.35
2022-11-16T12:32:16.083Z,2.97
2022-11-16T12:34:52.576Z,3.42
2022-11-16T12:37:35.219Z,3.83
2022-11-16T12:40:34.750Z,4.63
2022-11-16T12:43:29.327Z,4.00
2022-11-16T12:46:11.617Z,4.05
2022-11-16T12:48:55.242Z,3.92
2022-11-16T12:51:46.664Z,4.93
2022-11-16T12:54:17.365Z,4.57
2022-11-16T12:57:11.876Z,4.10
2022-11-16T12:59:54.629Z,5.90
2022-11-16T13:02:33.816Z,5.15
2022-11-16T13:05:13.238Z,5.50
2022-11-16T13:07:48.313Z,6.65
2022-11-16T13:10:34.359Z,5.72
2022-11-16T13:13:41.351Z,6.15
2022-11-16T13:16:00.595Z,5.88
2022-11-16T13:18:29.934Z,5.80
2022-11-16T13:21:07.593Z,7.07
2022-11-16T13:23:48.094Z,7.38
2022-11-16T13:26:30.440Z,4.97
2022-11-16T13:29:04.464Z,7.78
2022-11-16T13:31:48.279Z,6.30
2022-11-16T13:34:30.068Z,5.45
2022-11-16T13:36:58.481Z,5.63
2022-11-16T13:39:47.814Z,6.30
2022-11-16T13:42:16.918Z,6.30
2022-11-16T13:44:50.290Z,5.47
2022-11-16T13:47:27.407Z,6.22
2022-11-16T13:50:16.736Z,6.75
2022-11-16T13:53:36.374Z,6.90
2022-11-16T13:55:41.754Z,6.10
2022-11-16T13:58:13.445Z,6.55
2022-11-16T14:00:41.750Z,7.47
2022-11-16T14:03:18.694Z,8.23
2022-11-16T14:05:51.488Z,7.15
2022-11-16T14:08:25.047Z,8.32
2022-11-16T14:10:52.721Z,8.27
2022-11-16T14:13:48.433Z,13.68
2022-11-16T14:16:25.264Z,9.20
2022-11-16T14:18:55.584Z,8.90
2022-11-16T14:21:35.853Z,7.47
2022-11-16T14:24:09.604Z,8.93
2022-11-16T14:26:49.496Z,9.18
2022-11-16T14:29:34.565Z,9.13
2022-11-16T14:32:04.506Z,8.30
2022-11-16T14:34:47.306Z,8.90
2022-11-16T14:37:28.326Z,8.57
2022-11-16T14:40:05.660Z,8.30
2022-11-16T14:42:54.432Z,7.38
2022-11-16T14:45:28.372Z,6.38
2022-11-16T14:48:15.296Z,8.10
2022-11-16T14:50:46.897Z,7.43
2022-11-16T14:53:19.112Z,6.63
2022-11-16T14:55:47.538Z,7.00
2022-11-16T14:58:23.342Z,8.10
2022-11-16T15:01:04.953Z,6.10
2022-11-16T15:03:38.941Z,5.88
2022-11-16T15:06:08.645Z,6.38
2022-11-16T15:08:44.755Z,6.65
2022-11-16T15:11:24.499Z,5.82
2022-11-16T15:13:52.219Z,5.53
2022-11-16T15:16:21.253Z,5.38
2022-11-16T15:18:59.505Z,5.18
2022-11-16T15:21:28.020Z,5.65
2022-11-16T15:26:44.320Z,5.72
2022-11-16T15:29:19.871Z,5.10
2022-11-16T15:31:48.723Z,6.13
2022-11-16T15:34:18.741Z,5.93
2022-11-16T15:36:48.132Z,5.80
2022-11-16T15:39:27.885Z,6.07
2022-11-16T15:42:02.107Z,6.22
2022-11-16T15:44:31.985Z,6.45
2022-11-16T15:47:00.588Z,5.60
2022-11-16T15:49:37.985Z,5.78
2022-11-16T15:52:06.278Z,6.57
2022-11-16T15:54:55.657Z,6.80
2022-11-16T15:57:24.955Z,5.68
2022-11-16T15:59:55.316Z,5.60
2022-11-16T16:02:27.599Z,5.55
2022-11-16T16:04:55.606Z,6.00
2022-11-16T16:07:44.069Z,5.80
2022-11-16T16:10:20.030Z,5.55
2022-11-16T16:12:51.351Z,6.20
2022-11-16T16:15:36.789Z,6.82
2022-11-16T16:18:35.986Z,6.25
2022-11-16T16:21:04.072Z,5.88
2022-11-16T16:23:32.193Z,5.88
2022-11-16T16:26:04.080Z,6.63
2022-11-16T16:28:31.981Z,6.57
2022-11-16T16:30:59.558Z,6.22
2022-11-16T16:33:28.673Z,6.30
2022-11-16T16:35:56.361Z,6.38
2022-11-16T16:38:24.270Z,6.15
2022-11-16T16:40:51.801Z,6.22
2022-11-16T16:43:19.626Z,6.28
2022-11-16T16:45:47.303Z,6.25
2022-11-16T16:48:15.173Z,5.75
2022-11-16T16:50:42.733Z,6.45
2022-11-16T16:53:14.673Z,6.53
2022-11-16T16:55:43.462Z,6.65
2022-11-16T16:58:13.654Z,6.22
2022-11-16T17:00:42.599Z,6.70
2022-11-16T17:03:11.197Z,6.30
2022-11-16T17:05:39.303Z,6.47
2022-11-16T17:08:07.365Z,6.75
2022-11-16T17:10:38.843Z,6.18
2022-11-16T17:13:06.816Z,5.57
2022-11-16T17:15:34.421Z,5.65
2022-11-16T17:18:02.627Z,5.55
2022-11-16T17:20:30.360Z,5.40
2022-11-16T17:22:58.304Z,5.93
2022-11-16T17:25:25.900Z,5.28
2022-11-16T17:27:53.705Z,5.18
2022-11-16T17:30:21.246Z,4.85
2022-11-16T17:32:49.214Z,5.45
2022-11-16T17:35:16.868Z,6.40
2022-11-16T17:37:44.777Z,7.35
2022-11-16T17:40:12.769Z,5.47
2022-11-16T17:42:40.825Z,5.53
2022-11-16T17:45:08.741Z,5.40
2022-11-16T17:47:36.548Z,5.43
2022-11-16T17:50:04.605Z,5.50
2022-11-16T17:52:32.477Z,5.28
2022-11-16T17:55:00.059Z,7.10
2022-11-16T17:57:28.012Z,5.88
2022-11-16T17:59:55.589Z,4.78
2022-11-16T18:02:23.485Z,5.43
2022-11-16T18:04:51.613Z,5.40
2022-11-16T18:07:19.686Z,5.35
2022-11-16T18:09:47.473Z,5.90
2022-11-16T18:12:15.338Z,5.72
2022-11-16T18:14:59.935Z,5.57
2022-11-16T18:17:31.881Z,6.07
2022-11-16T18:19:59.494Z,10.25
2022-11-16T18:22:27.369Z,6.15
2022-11-16T18:24:54.988Z,5.57
2022-11-16T18:27:23.152Z,6.32
2022-11-16T18:29:50.786Z,5.78
2022-11-16T18:32:18.628Z,6.13
2022-11-16T18:34:46.324Z,8.95
2022-11-16T18:37:14.237Z,6.13
2022-11-16T18:39:41.872Z,6.13
2022-11-16T18:42:12.121Z,6.38
2022-11-16T18:44:39.738Z,6.93
2022-11-16T18:47:07.585Z,9.13
2022-11-16T18:49:35.358Z,9.32
2022-11-16T18:52:03.283Z,8.15
2022-11-16T18:54:30.841Z,7.40
2022-11-16T18:56:58.742Z,7.03
2022-11-16T18:59:26.373Z,7.50
2022-11-16T19:01:54.263Z,6.85
2022-11-16T19:04:21.912Z,6.85
2022-11-16T19:06:49.749Z,7.53
2022-11-16T19:09:17.337Z,7.85
2022-11-16T19:11:45.380Z,7.47
2022-11-16T19:14:13.449Z,7.38
2022-11-16T19:16:49.078Z,6.80
2022-11-16T19:19:21.698Z,7.43
2022-11-16T19:21:49.713Z,8.13
2022-11-16T19:24:17.250Z,8.88
2022-11-16T19:26:45.145Z,8.52
2022-11-16T19:29:12.776Z,8.70
2022-11-16T19:31:40.717Z,8.75
2022-11-16T19:34:10.952Z,9.00
2022-11-16T19:36:39.225Z,8.68
2022-11-16T19:39:07.085Z,9.55
2022-11-16T19:41:34.946Z,9.48
2022-11-16T19:44:02.717Z,9.45
2022-11-16T19:46:32.572Z,9.40
2022-11-16T19:49:00.700Z,10.85
2022-11-16T19:51:31.352Z,9.43
2022-11-16T19:54:00.556Z,10.43
2022-11-16T19:56:28.884Z,9.73
2022-11-16T19:58:56.498Z,9.73
2022-11-16T20:01:28.709Z,10.30
2022-11-16T20:03:58.882Z,10.88
2022-11-16T20:06:29.439Z,11.75
2022-11-16T20:09:01.073Z,11.32
2022-11-16T20:11:31.565Z,11.30
2022-11-16T20:13:59.833Z,11.25
2022-11-16T20:16:34.075Z,12.45
2022-11-16T20:19:05.132Z,11.90
2022-11-16T20:21:36.235Z,12.18
2022-11-16T20:24:07.125Z,12.63
2022-11-16T20:26:37.490Z,12.18
2022-11-16T20:29:05.136Z,11.75
2022-11-16T20:31:33.878Z,12.13
2022-11-16T20:34:04.259Z,12.50
2022-11-16T20:36:33.653Z,12.20
2022-11-16T20:39:01.872Z,11.80
2022-11-16T20:41:32.184Z,12.93
2022-11-16T20:44:01.621Z,12.52
2022-11-16T20:46:32.792Z,12.90
2022-11-16T20:49:03.867Z,13.02
2022-11-16T20:51:31.806Z,13.55
2022-11-16T20:53:59.519Z,13.98
2022-11-16T20:56:27.571Z,13.75
2022-11-16T20:58:55.449Z,13.57
2022-11-16T21:01:30.939Z,14.43
2022-11-16T21:04:04.499Z,11.75
2022-11-16T21:09:01.276Z,14.13
2022-11-16T21:11:30.960Z,12.98
2022-11-16T21:14:16.933Z,13.38
2022-11-16T21:16:44.857Z,11.70
2022-11-16T21:19:12.808Z,12.32
2022-11-16T21:21:41.347Z,13.25
2022-11-16T21:24:09.846Z,12.30
2022-11-16T21:26:38.129Z,11.40
2022-11-16T21:29:06.649Z,12.82
2022-11-16T21:31:36.453Z,11.43
2022-11-16T21:34:05.771Z,11.77
2022-11-16T21:36:34.191Z,11.68
2022-11-16T21:39:02.009Z,11.60
2022-11-16T21:41:29.914Z,12.07
2022-11-16T21:43:57.691Z,11.45
2022-11-16T21:46:27.135Z,12.00
2022-11-16T21:48:56.683Z,10.07
2022-11-16T21:51:26.793Z,8.95
2022-11-16T21:53:54.928Z,9.05
2022-11-16T21:56:25.366Z,10.07
2022-11-16T21:58:53.966Z,10.23
2022-11-16T22:01:23.973Z,8.30
2022-11-16T22:04:10.654Z,8.00
2022-11-16T22:06:57.079Z,8.40
2022-11-16T22:09:24.703Z,7.90
2022-11-16T22:14:58.448Z,7.13
2022-11-16T22:17:27.197Z,7.53
2022-11-16T22:19:55.378Z,6.78
2022-11-16T22:22:24.074Z,6.70
2022-11-16T22:24:51.978Z,6.57
2022-11-16T22:27:20.158Z,6.22
2022-11-16T22:29:47.857Z,6.38
2022-11-16T22:32:15.844Z,6.50
2022-11-16T22:34:43.586Z,7.47
2022-11-16T22:37:11.586Z,6.13
2022-11-16T22:39:39.469Z,6.13
2022-11-16T22:42:07.493Z,6.05
2022-11-16T22:44:35.410Z,6.20
2022-11-16T22:47:03.579Z,5.53
2022-11-16T22:49:31.323Z,5.97
2022-11-16T22:51:59.270Z,6.40
2022-11-16T22:54:28.826Z,5.88
2022-11-16T22:56:57.108Z,5.47
2022-11-16T22:59:24.780Z,5.72
2022-11-16T23:01:52.838Z,6.30
2022-11-16T23:04:20.593Z,6.13
2022-11-16T23:06:49.644Z,6.38
2022-11-16T23:09:17.435Z,5.57
2022-11-16T23:12:20.547Z,5.80
2022-11-16T23:15:06.949Z,5.72
2022-11-16T23:17:34.990Z,5.78
2022-11-16T23:20:21.780Z,5.57
2022-11-16T23:23:08.429Z,6.40
2022-11-16T23:25:55.429Z,5.30
2022-11-16T23:28:23.476Z,5.20
2022-11-16T23:30:51.223Z,5.32
2022-11-16T23:33:39.194Z,5.35
2022-11-16T23:36:07.335Z,5.50
2022-11-16T23:38:35.330Z,5.05
2022-11-16T23:41:23.067Z,4.65
2022-11-16T23:44:00.648Z,4.82
2022-11-16T23:46:30.349Z,4.60
2022-11-16T23:48:59.143Z,4.43
2022-11-16T23:51:27.259Z,4.20
2022-11-16T23:53:55.896Z,3.70
2022-11-16T23:56:24.431Z,4.38
2022-11-16T23:58:57.400Z,4.05
